Time;durP1;ratioP1;P1;durP2;ratioP2;P2;SDS_P1;SDS_P2;PMS_P1;PMS_P2;Temp;Humidity;BMP_temperature;BMP_pressure;BME280_temperature;BME280_humidity;BME280_pressure;Samples;Min_cycle;Max_cycle;Signal;HPM_P1;HPM_P2
2023/12/07 00:00:55;;;;;;;;;;;;;;;1.62;94.15;99424.75;5076816;28;19920;-77
2023/12/07 00:03:23;;;;;;;;;;;;;;;1.57;94.00;99435.47;5076317;28;20011;-77
2023/12/07 00:05:52;;;;;;;;;;;;;;;1.54;94.32;99435.34;5076317;28;19920;-77
2023/12/07 00:08:20;;;;;;;;;;;;;;;1.56;94.31;99433.78;5075494;28;19925;-78
2023/12/07 00:10:49;;;;;;;;;;;;;;;1.55;94.44;99427.03;5076764;28;19927;-77
2023/12/07 00:13:18;;;;;;;;;;;;;;;1.55;94.88;99430.38;5075340;28;19920;-77
2023/12/07 00:15:46;;;;;;;;;;;;;;;1.58;95.20;99432.16;5076641;28;19920;-77
2023/12/07 00:18:17;;;;;;;;;;;;;;;1.61;94.60;99427.22;5076909;28;20019;-77
2023/12/07 00:20:46;;;;;;;;;;;;;;;1.60;94.67;99425.50;5076960;28;20017;-77
2023/12/07 00:23:15;;;;;;;;;;;;;;;1.62;94.38;99423.88;5076109;28;20328;-77
2023/12/07 00:25:45;;;;;;;;;;;;;;;1.70;95.17;99432.53;5075120;28;19969;-77
2023/12/07 00:28:14;;;;;;;;;;;;;;;1.71;94.48;99431.69;5076099;28;19921;-77
2023/12/07 00:30:42;;;;;;;;;;;;;;;1.72;94.50;99429.25;5075224;28;19920;-77
2023/12/07 00:33:11;;;;;;;;;;;;;;;1.74;94.84;99429.28;5075053;28;19924;-77
2023/12/07 00:35:41;;;;;;;;;;;;;;;1.73;94.36;99437.63;5075957;28;19920;-77
2023/12/07 00:38:10;;;;;;;;;;;;;;;1.77;95.22;99441.97;5075933;28;19924;-77
2023/12/07 00:40:39;;;;;;;;;;;;;;;1.77;94.37;99440.31;5076180;28;19920;-77
2023/12/07 00:43:08;;;;;;;;;;;;;;;1.75;94.90;99446.09;5074727;28;19928;-77
2023/12/07 00:45:37;;;;;;;;;;;;;;;1.75;95.18;99446.09;5075797;28;20259;-77
2023/12/07 00:48:05;;;;;;;;;;;;;;;1.78;95.09;99451.19;5076018;28;19920;-77
2023/12/07 00:50:34;;;;;;;;;;;;;;;1.77;94.59;99444.47;5075997;28;19921;-77
2023/12/07 00:53:04;;;;;;;;;;;;;;;1.75;95.18;99446.09;5075839;28;19924;-77
2023/12/07 00:55:33;;;;;;;;;;;;;;;1.75;94.74;99446.09;5074827;28;20014;-77
2023/12/07 00:58:02;;;;;;;;;;;;;;;1.76;94.54;99458.72;5074511;28;19959;-77
2023/12/07 01:00:31;;;;;;;;;;;;;;;1.76;95.07;99447.78;5075729;28;20411;-77
2023/12/07 01:03:00;;;;;;;;;;;;;;;1.75;94.51;99451.13;5073929;28;19927;-77
2023/12/07 01:05:28;;;;;;;;;;;;;;;1.75;95.02;99446.09;5075666;28;19974;-77
2023/12/07 01:07:57;;;;;;;;;;;;;;;1.77;94.37;99454.53;5075409;28;19956;-77
2023/12/07 01:10:27;;;;;;;;;;;;;;;1.78;94.86;99451.19;5075794;28;19920;-77
2023/12/07 01:12:56;;;;;;;;;;;;;;;1.78;94.95;99448.69;5074471;28;19920;-77
2023/12/07 01:15:25;;;;;;;;;;;;;;;1.78;94.86;99451.19;5075199;28;19920;-77
2023/12/07 01:17:53;;;;;;;;;;;;;;;1.77;95.31;99444.47;5090310;28;19970;-77
2023/12/07 01:20:22;;;;;;;;;;;;;;;1.77;94.51;99444.47;5074196;28;19924;-77
2023/12/07 01:22:51;;;;;;;;;;;;;;;1.77;94.59;99439.44;5074980;28;19969;-77
2023/12/07 01:25:21;;;;;;;;;;;;;;;1.79;94.70;99443.72;5074856;28;19924;-77
2023/12/07 01:27:52;;;;;;;;;;;;;;;1.79;94.69;99447.88;5075267;28;20007;-77
2023/12/07 01:30:21;;;;;;;;;;;;;;;1.74;94.43;99447.75;5075794;28;19924;-76
2023/12/07 01:32:49;;;;;;;;;;;;;;;1.74;94.31;99449.41;5075136;28;19920;-76
2023/12/07 01:35:18;;;;;;;;;;;;;;;1.72;94.70;99451.03;5074706;28;19955;-77
2023/12/07 01:37:47;;;;;;;;;;;;;;;1.72;95.07;99446.00;5074937;28;20010;-76
2023/12/07 01:40:16;;;;;;;;;;;;;;;1.74;94.73;99454.44;5073338;28;19924;-76
2023/12/07 01:42:54;;;;;;;;;;;;;;;1.72;94.60;99461.09;5057217;28;20015;-77
2023/12/07 01:45:23;;;;;;;;;;;;;;;1.73;94.72;99453.56;5073479;28;19924;-76
2023/12/07 01:47:52;;;;;;;;;;;;;;;1.74;94.54;99454.44;5073481;28;20275;-77
2023/12/07 01:50:23;;;;;;;;;;;;;;;1.73;94.43;99458.59;5074399;28;19921;-77
2023/12/07 01:52:55;;;;;;;;;;;;;;;1.72;94.34;99461.09;5073306;28;19924;-77
2023/12/07 01:55:24;;;;;;;;;;;;;;;1.71;94.44;99459.38;5075048;28;19920;-77
2023/12/07 01:57:55;;;;;;;;;;;;;;;1.66;94.20;99455.84;5074929;28;19933;-77
2023/12/07 02:00:24;;;;;;;;;;;;;;;1.62;94.41;99454.06;5074272;28;19927;-77
2023/12/07 02:02:52;;;;;;;;;;;;;;;1.61;94.81;99457.41;5074340;28;20035;-77
2023/12/07 02:05:21;;;;;;;;;;;;;;;1.64;94.84;99452.44;5073121;28;19920;-77
2023/12/07 02:07:50;;;;;;;;;;;;;;;1.66;95.26;99453.34;5074451;28;19946;-77
2023/12/07 02:10:20;;;;;;;;;;;;;;;1.68;95.16;99449.22;5074653;28;19970;-77
2023/12/07 02:12:48;;;;;;;;;;;;;;;1.69;94.59;99453.44;5073335;28;19970;-77
2023/12/07 02:15:18;;;;;;;;;;;;;;;1.72;94.93;99446.00;5074106;28;20014;-78
2023/12/07 02:17:55;;;;;;;;;;;;;;;1.72;94.64;99446.00;5074384;28;20380;-77
2023/12/07 02:20:29;;;;;;;;;;;;;;;1.71;94.35;99444.28;5074383;28;19994;-77
2023/12/07 02:23:02;;;;;;;;;;;;;;;1.72;94.35;99451.03;5074126;28;20011;-76
2023/12/07 02:25:34;;;;;;;;;;;;;;;1.68;94.49;99445.03;5072297;28;19925;-76
2023/12/07 02:28:05;;;;;;;;;;;;;;;1.68;95.28;99449.22;5074266;28;20016;-76
2023/12/07 02:30:33;;;;;;;;;;;;;;;1.65;94.44;99450.00;5056220;28;19924;-76
2023/12/07 02:33:02;;;;;;;;;;;;;;;1.65;94.44;99449.13;5074265;28;19944;-76
2023/12/07 02:35:31;;;;;;;;;;;;;;;1.65;94.71;99449.13;5074546;28;19975;-76
2023/12/07 02:37:59;;;;;;;;;;;;;;;1.65;95.28;99454.16;5056268;28;20373;-76
2023/12/07 02:40:30;;;;;;;;;;;;;;;1.67;94.56;99455.91;5074150;28;20281;-76
2023/12/07 02:42:59;;;;;;;;;;;;;;;1.67;94.85;99457.56;5074459;28;19920;-76
2023/12/07 02:45:29;;;;;;;;;;;;;;;1.62;94.34;99454.91;5072581;28;19969;-76
2023/12/07 02:47:58;;;;;;;;;;;;;;;1.62;94.85;99459.09;5072791;28;19920;-76
2023/12/07 02:50:27;;;;;;;;;;;;;;;1.60;94.46;99461.56;5073190;28;19920;-76
2023/12/07 02:52:56;;;;;;;;;;;;;;;1.62;95.18;99464.13;5074050;28;20076;-76
2023/12/07 02:55:25;;;;;;;;;;;;;;;1.61;94.60;99457.41;5073937;28;20053;-75
2023/12/07 02:57:53;;;;;;;;;;;;;;;1.61;95.16;99459.91;5073680;28;20007;-75
2023/12/07 03:00:22;;;;;;;;;;;;;;;1.61;95.16;99457.41;5072533;28;20442;-76
2023/12/07 03:02:52;;;;;;;;;;;;;;;1.60;94.50;99455.69;5073461;28;20011;-76
2023/12/07 03:05:22;;;;;;;;;;;;;;;1.60;94.69;99456.53;5072367;28;19921;-76
2023/12/07 03:07:51;;;;;;;;;;;;;;;1.62;94.85;99466.63;5074002;28;19943;-76
2023/12/07 03:10:20;;;;;;;;;;;;;;;1.62;94.91;99469.16;5073561;28;19979;-75
2023/12/07 03:12:48;;;;;;;;;;;;;;;1.62;95.07;99459.09;5039187;28;19924;-75
2023/12/07 03:15:17;;;;;;;;;;;;;;;1.65;94.82;99459.19;5073862;28;19921;-76
2023/12/07 03:17:46;;;;;;;;;;;;;;;1.66;94.50;99464.25;5073819;28;20333;-75
2023/12/07 03:20:16;;;;;;;;;;;;;;;1.64;94.46;99458.34;5073795;28;19920;-76
2023/12/07 03:22:45;;;;;;;;;;;;;;;1.66;95.02;99463.41;5072506;28;19920;-75
2023/12/07 03:25:14;;;;;;;;;;;;;;;1.67;95.47;99458.44;5072339;28;20406;-75
2023/12/07 03:27:44;;;;;;;;;;;;;;;1.68;95.10;99464.31;5073214;28;20271;-76
2023/12/07 03:30:12;;;;;;;;;;;;;;;1.62;95.00;99464.13;5073787;28;20279;-76
2023/12/07 03:32:41;;;;;;;;;;;;;;;1.63;94.95;99465.84;5072101;28;19920;-75
2023/12/07 03:35:10;;;;;;;;;;;;;;;1.66;94.58;99469.28;5072392;28;20020;-76
2023/12/07 03:37:40;;;;;;;;;;;;;;;1.66;94.54;99471.81;5073630;28;19959;-75
2023/12/07 03:40:09;;;;;;;;;;;;;;;1.66;94.67;99468.44;5073542;28;19927;-76
2023/12/07 03:42:38;;;;;;;;;;;;;;;1.68;95.00;99479.41;5058578;28;19921;-75
2023/12/07 03:45:23;;;;;;;;;;;;;;;1.62;94.68;99480.06;5077368;28;20282;-75
2023/12/07 03:47:52;;;;;;;;;;;;;;;1.61;94.54;99472.47;5077441;28;20295;-75
2023/12/07 03:50:21;;;;;;;;;;;;;;;1.62;94.54;99479.22;5092504;28;19970;-76
2023/12/07 03:52:50;;;;;;;;;;;;;;;1.62;94.95;99485.09;5076673;28;19921;-76
2023/12/07 03:55:19;;;;;;;;;;;;;;;1.66;94.51;99476.84;5077106;28;19993;-76
2023/12/07 03:57:47;;;;;;;;;;;;;;;1.68;95.43;99481.94;5092654;28;20023;-77
2023/12/07 04:00:16;;;;;;;;;;;;;;;1.69;95.23;99486.13;5076259;28;20279;-77
2023/12/07 04:02:44;;;;;;;;;;;;;;;1.69;94.77;99486.13;5076697;28;19924;-77
2023/12/07 04:05:13;;;;;;;;;;;;;;;1.68;95.35;99486.97;5076530;28;19943;-77
2023/12/07 04:07:42;;;;;;;;;;;;;;;1.66;94.86;99486.03;5075331;28;19970;-76
2023/12/07 04:10:12;;;;;;;;;;;;;;;1.69;94.58;99486.13;5077344;28;20278;-76
2023/12/07 04:12:41;;;;;;;;;;;;;;;1.69;95.11;99486.13;5076835;28;20011;-76
2023/12/07 04:15:10;;;;;;;;;;;;;;;1.68;95.32;99489.47;5076700;28;20385;-77
2023/12/07 04:17:39;;;;;;;;;;;;;;;1.65;95.01;99495.25;5076586;28;19920;-77
2023/12/07 04:20:09;;;;;;;;;;;;;;;1.66;95.09;99489.41;5076591;28;19920;-77
2023/12/07 04:22:38;;;;;;;;;;;;;;;1.67;95.20;99502.84;5076553;28;20366;-77
2023/12/07 04:25:07;;;;;;;;;;;;;;;1.67;95.43;99497.81;5025092;28;20351;-77
2023/12/07 04:27:37;;;;;;;;;;;;;;;1.65;94.95;99499.44;5076458;28;20027;-76
2023/12/07 04:30:06;;;;;;;;;;;;;;;1.65;95.12;99496.91;5076688;28;19974;-77
2023/12/07 04:32:34;;;;;;;;;;;;;;;1.64;94.57;99492.69;5075975;28;19920;-76
2023/12/07 04:35:03;;;;;;;;;;;;;;;1.64;94.79;99495.19;5076282;28;19927;-77
2023/12/07 04:37:32;;;;;;;;;;;;;;;1.66;95.14;99501.13;5074938;28;19921;-76
2023/12/07 04:40:00;;;;;;;;;;;;;;;1.70;94.72;99505.47;5058491;28;19928;-77
2023/12/07 04:42:29;;;;;;;;;;;;;;;1.71;94.87;99508.00;5074692;28;19920;-77
2023/12/07 04:44:59;;;;;;;;;;;;;;;1.70;94.54;99507.97;5075787;28;19927;-77
2023/12/07 04:47:29;;;;;;;;;;;;;;;1.68;95.25;99510.41;5058017;28;19926;-77
2023/12/07 04:49:58;;;;;;;;;;;;;;;1.68;94.93;99509.59;5076204;28;20007;-77
2023/12/07 04:52:26;;;;;;;;;;;;;;;1.68;94.45;99514.63;5090615;28;20051;-77
2023/12/07 04:54:56;;;;;;;;;;;;;;;1.69;94.59;99516.31;5075562;28;20389;-77
2023/12/07 04:57:25;;;;;;;;;;;;;;;1.68;94.74;99514.63;5074297;28;19943;-79
2023/12/07 04:59:53;;;;;;;;;;;;;;;1.69;94.52;99518.81;5074353;28;20012;-78
2023/12/07 05:02:25;;;;;;;;;;;;;;;1.70;95.44;99523.06;5041530;28;19920;-78
2023/12/07 05:04:55;;;;;;;;;;;;;;;1.71;95.11;99524.75;5075442;28;19970;-78
2023/12/07 05:07:24;;;;;;;;;;;;;;;1.71;95.12;99524.75;5074038;28;19952;-78
2023/12/07 05:09:52;;;;;;;;;;;;;;;1.68;94.54;99525.50;5075145;28;19966;-78
2023/12/07 05:12:21;;;;;;;;;;;;;;;1.65;94.47;99530.47;5075229;28;19967;-78
2023/12/07 05:14:50;;;;;;;;;;;;;;;1.63;94.82;99526.19;5075156;28;20026;-78
2023/12/07 05:17:19;;;;;;;;;;;;;;;1.61;94.57;99528.63;5075763;28;19942;-78
2023/12/07 05:19:49;;;;;;;;;;;;;;;1.60;94.77;99526.09;5075314;28;19970;-78
2023/12/07 05:22:18;;;;;;;;;;;;;;;1.63;94.45;99533.75;5041362;28;20351;-78
2023/12/07 05:24:47;;;;;;;;;;;;;;;1.61;94.50;99533.66;5074428;28;19924;-78
2023/12/07 05:27:17;;;;;;;;;;;;;;;1.59;95.16;99534.44;5073852;28;19985;-78
2023/12/07 05:29:45;;;;;;;;;;;;;;;1.61;94.61;99532.84;5074819;28;19927;-78
2023/12/07 05:32:14;;;;;;;;;;;;;;;1.61;94.68;99538.69;5074995;28;19983;-78
2023/12/07 05:34:43;;;;;;;;;;;;;;;1.64;95.02;99538.81;5074918;28;19920;-78
2023/12/07 05:37:13;;;;;;;;;;;;;;;1.67;95.02;99543.06;5075052;28;20404;-79
2023/12/07 05:39:42;;;;;;;;;;;;;;;1.65;94.69;99544.69;5074676;28;19927;-79
2023/12/07 05:42:10;;;;;;;;;;;;;;;1.64;94.65;99548.88;5073460;28;19927;-79
2023/12/07 05:44:39;;;;;;;;;;;;;;;1.63;94.93;99556.38;5074616;28;19920;-79
2023/12/07 05:47:09;;;;;;;;;;;;;;;1.59;94.77;99550.38;5056801;28;19920;-79
2023/12/07 05:49:37;;;;;;;;;;;;;;;1.59;95.16;99560.44;5074548;28;20007;-79
2023/12/07 05:52:06;;;;;;;;;;;;;;;1.60;94.65;99563.81;5073052;28;20273;-79
2023/12/07 05:54:36;;;;;;;;;;;;;;;1.61;94.57;99568.88;5074791;28;20408;-79
2023/12/07 05:57:04;;;;;;;;;;;;;;;1.62;94.73;99564.72;5073491;28;19921;-79
2023/12/07 05:59:37;;;;;;;;;;;;;;;1.63;94.67;99563.91;5073389;28;19920;-79
2023/12/07 06:02:06;;;;;;;;;;;;;;;1.63;95.30;99566.44;5074746;28;19927;-79
2023/12/07 06:04:35;;;;;;;;;;;;;;;1.67;95.40;99573.25;5040335;28;19926;-79
2023/12/07 06:07:04;;;;;;;;;;;;;;;1.68;94.69;99577.50;5073180;28;19975;-80
2023/12/07 06:09:32;;;;;;;;;;;;;;;1.69;94.68;99580.06;5074266;28;20365;-79
2023/12/07 06:12:04;;;;;;;;;;;;;;;1.72;94.89;99584.31;5073380;28;19951;-80
2023/12/07 06:14:32;;;;;;;;;;;;;;;1.75;95.46;99589.47;5074318;28;19921;-79
2023/12/07 06:17:01;;;;;;;;;;;;;;;1.75;95.28;99586.94;5074065;28;19921;-80
2023/12/07 06:19:30;;;;;;;;;;;;;;;1.74;95.02;99595.28;5074409;28;19927;-79
2023/12/07 06:21:58;;;;;;;;;;;;;;;1.76;94.92;99593.69;5074127;28;19932;-79
2023/12/07 06:24:27;;;;;;;;;;;;;;;1.76;95.23;99591.16;5073424;28;20347;-79
2023/12/07 06:26:55;;;;;;;;;;;;;;;1.76;95.47;99593.69;5072963;28;20282;-79
2023/12/07 06:29:25;;;;;;;;;;;;;;;1.74;94.98;99591.13;5074047;28;20324;-79
2023/12/07 06:31:58;;;;;;;;;;;;;;;1.69;94.79;99596.78;5072954;28;19927;-79
2023/12/07 06:34:27;;;;;;;;;;;;;;;1.71;94.62;99601.06;5074275;28;20019;-79
2023/12/07 06:36:56;;;;;;;;;;;;;;;1.73;94.75;99603.63;5074179;28;19989;-80
2023/12/07 06:39:26;;;;;;;;;;;;;;;1.74;94.94;99600.31;5074375;28;20321;-79
2023/12/07 06:41:55;;;;;;;;;;;;;;;1.73;94.71;99613.69;5072755;28;19921;-79
2023/12/07 06:44:25;;;;;;;;;;;;;;;1.74;95.43;99612.91;5056127;28;20279;-79
2023/12/07 06:46:54;;;;;;;;;;;;;;;1.77;94.70;99613.00;5056363;28;20297;-78
2023/12/07 06:49:23;;;;;;;;;;;;;;;1.76;94.62;99619.69;5072903;28;19928;-79
2023/12/07 06:52:02;;;;;;;;;;;;;;;1.78;95.59;99622.25;5073749;28;19921;-79
2023/12/07 06:54:31;;;;;;;;;;;;;;;1.78;94.73;99622.25;5073536;28;19920;-78
2023/12/07 06:56:59;;;;;;;;;;;;;;;1.76;94.67;99628.88;5072720;28;19924;-78
2023/12/07 06:59:29;;;;;;;;;;;;;;;1.75;94.65;99633.06;5074047;28;19920;-77
2023/12/07 07:01:58;;;;;;;;;;;;;;;1.78;94.60;99632.31;5085105;28;19970;-77
2023/12/07 07:04:27;;;;;;;;;;;;;;;1.81;95.51;99632.41;5053810;28;20278;-77
2023/12/07 07:06:56;;;;;;;;;;;;;;;1.81;94.78;99638.31;5035816;28;19924;-77
2023/12/07 07:09:25;;;;;;;;;;;;;;;1.83;95.14;99640.88;5053513;28;19928;-77
2023/12/07 07:11:54;;;;;;;;;;;;;;;1.86;94.98;99635.94;5053472;28;19928;-77
2023/12/07 07:14:23;;;;;;;;;;;;;;;1.88;95.00;99645.25;5052684;28;20274;-77
2023/12/07 07:16:53;;;;;;;;;;;;;;;1.89;95.58;99646.97;5056511;28;19925;-77
2023/12/07 07:19:22;;;;;;;;;;;;;;;1.91;95.26;99647.88;5056570;28;20019;-78
2023/12/07 07:21:50;;;;;;;;;;;;;;;1.94;95.39;99654.66;5062605;28;19954;-77
2023/12/07 07:24:19;;;;;;;;;;;;;;;1.97;95.48;99649.72;5067259;28;19920;-77
2023/12/07 07:26:48;;;;;;;;;;;;;;;1.99;95.01;99648.13;5033363;28;19924;-77
2023/12/07 07:29:16;;;;;;;;;;;;;;;2.04;94.89;99646.59;5049893;28;19924;-78
2023/12/07 07:31:46;;;;;;;;;;;;;;;2.02;95.11;99654.09;5071564;28;19920;-76
2023/12/07 07:34:16;;;;;;;;;;;;;;;2.00;94.86;99649.81;5066445;28;19928;-78
2023/12/07 07:36:44;;;;;;;;;;;;;;;2.02;95.27;99650.72;5067944;28;19920;-78
2023/12/07 07:39:13;;;;;;;;;;;;;;;2.03;95.67;99649.94;5067883;28;19920;-78
2023/12/07 07:41:42;;;;;;;;;;;;;;;2.05;95.11;99653.34;5077202;28;20333;-76
2023/12/07 07:44:11;;;;;;;;;;;;;;;2.11;95.47;99650.19;5076879;28;19966;-78
2023/12/07 07:46:41;;;;;;;;;;;;;;;2.14;95.07;99648.59;5075992;28;19920;-78
2023/12/07 07:49:10;;;;;;;;;;;;;;;2.19;95.50;99657.16;5077176;28;19924;-76
2023/12/07 07:51:40;;;;;;;;;;;;;;;2.24;94.81;99665.72;5075799;28;20378;-76
2023/12/07 07:54:09;;;;;;;;;;;;;;;2.27;95.70;99655.75;5092579;28;19963;-77
2023/12/07 07:56:38;;;;;;;;;;;;;;;2.28;95.04;99657.44;5075899;28;20271;-76
2023/12/07 07:59:06;;;;;;;;;;;;;;;2.30;95.07;99660.88;5076594;28;19920;-76
2023/12/07 08:01:35;;;;;;;;;;;;;;;2.31;95.31;99662.59;5076321;28;20366;-76
2023/12/07 08:04:03;;;;;;;;;;;;;;;2.32;95.33;99664.31;5076809;28;20014;-76
2023/12/07 08:06:32;;;;;;;;;;;;;;;2.35;95.67;99664.38;5075424;28;19926;-77
2023/12/07 08:09:06;;;;;;;;;;;;;;;2.38;95.09;99669.50;5076324;28;19920;-76
2023/12/07 08:11:35;;;;;;;;;;;;;;;2.43;95.52;99668.00;5076582;28;19954;-76
2023/12/07 08:14:04;;;;;;;;;;;;;;;2.48;94.88;99674.03;5079362;28;19942;-75
2023/12/07 08:16:32;;;;;;;;;;;;;;;2.54;95.55;99679.25;5076276;28;19920;-76
2023/12/07 08:19:05;;;;;;;;;;;;;;;2.58;95.45;99683.59;5075122;28;19944;-75
2023/12/07 08:21:37;;;;;;;;;;;;;;;2.61;95.34;99677.78;5076252;28;20363;-74
2023/12/07 08:24:08;;;;;;;;;;;;;;;2.64;94.85;99683.75;5078686;28;19983;-73
2023/12/07 08:26:37;;;;;;;;;;;;;;;2.69;95.35;99688.94;5063640;28;19920;-73
2023/12/07 08:29:06;;;;;;;;;;;;;;;2.76;95.11;99682.44;5058486;28;19920;-72
2023/12/07 08:31:38;;;;;;;;;;;;;;;2.81;95.13;99686.78;5063967;28;19920;-73
2023/12/07 08:34:08;;;;;;;;;;;;;;;2.83;94.88;99684.34;5092152;28;19920;-73
2023/12/07 08:36:37;;;;;;;;;;;;;;;2.88;94.77;99692.91;5067231;28;19927;-73
2023/12/07 08:39:09;;;;;;;;;;;;;;;2.89;94.73;99690.41;5065535;28;19920;-73
2023/12/07 08:41:39;;;;;;;;;;;;;;;2.89;94.51;99690.41;5066723;28;20266;-74
2023/12/07 08:44:08;;;;;;;;;;;;;;;2.95;94.39;99695.59;5055992;28;19921;-73
2023/12/07 08:46:36;;;;;;;;;;;;;;;2.98;94.68;99700.75;5054709;28;19927;-72
2023/12/07 08:49:05;;;;;;;;;;;;;;;3.00;94.30;99698.28;5055772;28;19921;-73
2023/12/07 08:51:35;;;;;;;;;;;;;;;3.00;94.26;99699.13;5056565;28;19921;-73
2023/12/07 08:54:03;;;;;;;;;;;;;;;3.00;93.97;99708.38;5055428;28;20382;-73
2023/12/07 08:56:34;;;;;;;;;;;;;;;3.01;93.52;99705.03;5055642;28;19970;-73
2023/12/07 08:59:04;;;;;;;;;;;;;;;3.00;93.11;99709.22;5055434;28;19927;-74
2023/12/07 09:01:34;;;;;;;;;;;;;;;2.99;93.18;99711.69;5055504;28;19967;-73
2023/12/07 09:04:03;;;;;;;;;;;;;;;3.00;92.62;99713.41;5056359;28;20351;-73
2023/12/07 09:06:32;;;;;;;;;;;;;;;3.01;92.78;99712.59;5055262;28;19921;-74
2023/12/07 09:09:01;;;;;;;;;;;;;;;3.01;92.53;99721.00;5055280;28;20027;-73
2023/12/07 09:11:30;;;;;;;;;;;;;;;3.03;92.39;99726.09;5054196;28;19921;-73
2023/12/07 09:13:59;;;;;;;;;;;;;;;3.02;92.25;99719.34;5055508;28;19986;-73
2023/12/07 09:16:29;;;;;;;;;;;;;;;3.04;92.38;99720.25;5055505;28;19921;-72
2023/12/07 09:18:58;;;;;;;;;;;;;;;3.06;91.75;99726.19;5055210;28;20084;-73
2023/12/07 09:21:26;;;;;;;;;;;;;;;3.07;91.96;99720.34;5055433;28;20012;-72
2023/12/07 09:23:55;;;;;;;;;;;;;;;3.07;91.58;99720.34;5054927;28;19967;-73
2023/12/07 09:26:23;;;;;;;;;;;;;;;3.06;91.40;99718.63;5055332;28;19921;-74
2023/12/07 09:28:52;;;;;;;;;;;;;;;3.03;91.37;99719.38;5020689;28;20023;-72
2023/12/07 09:31:21;;;;;;;;;;;;;;;3.05;91.09;99716.91;5055088;28;19927;-72
2023/12/07 09:33:52;;;;;;;;;;;;;;;3.07;90.87;99722.88;5054005;28;19928;-74
2023/12/07 09:36:23;;;;;;;;;;;;;;;3.08;90.43;99711.97;5055381;28;20015;-72
2023/12/07 09:38:52;;;;;;;;;;;;;;;3.10;90.34;99716.22;5054139;28;19921;-72
2023/12/07 09:41:21;;;;;;;;;;;;;;;3.12;89.95;99713.78;5054960;28;19947;-72
2023/12/07 09:43:50;;;;;;;;;;;;;;;3.14;90.19;99717.19;5053267;28;20394;-72
2023/12/07 09:46:19;;;;;;;;;;;;;;;3.16;90.05;99715.56;5054899;28;20357;-72
2023/12/07 09:48:50;;;;;;;;;;;;;;;3.17;89.87;99713.09;5054552;28;20366;-72
2023/12/07 09:51:20;;;;;;;;;;;;;;;3.16;89.69;99710.53;5054577;28;19966;-72
2023/12/07 09:53:51;;;;;;;;;;;;;;;3.18;89.48;99713.94;5054856;28;20318;-72
2023/12/07 09:56:21;;;;;;;;;;;;;;;3.21;89.42;99716.56;5054597;28;19921;-72
2023/12/07 09:58:49;;;;;;;;;;;;;;;3.22;89.10;99718.25;5054393;28;19921;-73
2023/12/07 10:01:18;;;;;;;;;;;;;;;3.21;89.46;99719.09;5054457;28;19948;-74
2023/12/07 10:03:48;;;;;;;;;;;;;;;3.24;88.94;99719.16;5052805;28;20351;-74
2023/12/07 10:06:16;;;;;;;;;;;;;;;3.25;88.80;99718.34;5053469;28;19983;-72
2023/12/07 10:08:46;;;;;;;;;;;;;;;3.29;88.59;99717.63;5054307;28;19921;-73
2023/12/07 10:11:17;;;;;;;;;;;;;;;3.31;88.32;99721.06;5054148;28;20011;-72
2023/12/07 10:13:47;;;;;;;;;;;;;;;3.34;88.43;99716.94;5054446;28;19921;-73
2023/12/07 10:16:17;;;;;;;;;;;;;;;3.36;88.33;99719.50;5054457;28;19944;-73
2023/12/07 10:18:46;;;;;;;;;;;;;;;3.37;88.42;99721.22;5054403;28;20027;-73
2023/12/07 10:21:15;;;;;;;;;;;;;;;3.42;87.77;99712.13;5054307;28;19921;-71
2023/12/07 10:23:46;;;;;;;;;;;;;;;3.43;87.80;99715.50;5053868;28;19921;-73
2023/12/07 10:26:20;;;;;;;;;;;;;;;3.48;88.01;99711.44;5054255;28;19925;-71
2023/12/07 10:28:53;;;;;;;;;;;;;;;3.45;87.66;99714.72;5054102;28;19921;-73
2023/12/07 10:31:24;;;;;;;;;;;;;;;3.51;87.27;99719.94;5054623;28;19951;-72
2023/12/07 10:33:53;;;;;;;;;;;;;;;3.51;86.95;99719.94;5053954;28;19924;-72
2023/12/07 10:36:22;;;;;;;;;;;;;;;3.54;86.65;99722.56;5052903;28;19927;-73
2023/12/07 10:38:52;;;;;;;;;;;;;;;3.56;86.55;99713.34;5053957;28;19952;-73
2023/12/07 10:41:23;;;;;;;;;;;;;;;3.58;86.16;99719.28;5052741;28;20279;-72
2023/12/07 10:43:53;;;;;;;;;;;;;;;3.59;86.44;99713.44;5052509;28;20337;-72
2023/12/07 10:46:22;;;;;;;;;;;;;;;3.64;86.09;99716.94;5053182;28;19921;-72
2023/12/07 10:48:56;;;;;;;;;;;;;;;3.71;85.95;99716.31;5053911;28;19921;-72
2023/12/07 10:51:30;;;;;;;;;;;;;;;3.73;85.62;99717.19;5056893;28;20341;-71
2023/12/07 10:54:01;;;;;;;;;;;;;;;3.73;85.47;99712.16;5058279;28;19925;-72
2023/12/07 10:56:35;;;;;;;;;;;;;;;3.70;85.27;99714.56;5057861;28;20294;-72
2023/12/07 10:59:07;;;;;;;;;;;;;;;3.74;84.99;99713.84;5058063;28;20092;-72
2023/12/07 11:01:40;;;;;;;;;;;;;;;3.76;84.65;99717.28;5056395;28;19927;-71
2023/12/07 11:04:12;;;;;;;;;;;;;;;3.82;84.41;99714.91;5058171;28;19963;-73
2023/12/07 11:06:41;;;;;;;;;;;;;;;3.86;83.74;99708.28;5040369;28;19956;-71
2023/12/07 11:09:11;;;;;;;;;;;;;;;3.86;83.83;99708.28;5057461;28;20011;-73
2023/12/07 11:11:48;;;;;;;;;;;;;;;3.87;83.53;99709.97;5057630;28;19925;-74
2023/12/07 11:14:17;;;;;;;;;;;;;;;3.88;83.02;99702.47;5057824;28;19920;-72
2023/12/07 11:16:47;;;;;;;;;;;;;;;3.95;82.94;99709.38;5057327;28;20341;-73
2023/12/07 11:19:25;;;;;;;;;;;;;;;4.00;82.62;99715.41;5057682;28;20398;-71
2023/12/07 11:21:55;;;;;;;;;;;;;;;4.05;82.14;99710.47;5057688;28;19940;-72
2023/12/07 11:24:24;;;;;;;;;;;;;;;4.10;82.17;99713.09;5057630;28;19920;-72
2023/12/07 11:26:54;;;;;;;;;;;;;;;4.15;82.08;99719.13;5056586;28;19975;-72
2023/12/07 11:29:25;;;;;;;;;;;;;;;4.18;81.75;99716.66;5057314;28;19928;-71
2023/12/07 11:31:57;;;;;;;;;;;;;;;4.17;81.82;99714.97;5057769;28;19921;-72
2023/12/07 11:34:34;;;;;;;;;;;;;;;4.14;80.96;99714.88;5057165;28;20377;-71
2023/12/07 11:37:03;;;;;;;;;;;;;;;4.07;80.57;99717.25;5057388;28;19920;-71
2023/12/07 11:39:36;;;;;;;;;;;;;;;4.08;80.73;99716.44;5056997;28;19921;-72
2023/12/07 11:42:11;;;;;;;;;;;;;;;4.06;80.18;99723.13;5057068;28;19924;-72
2023/12/07 11:44:40;;;;;;;;;;;;;;;4.06;79.70;99720.59;5057265;28;20438;-73
2023/12/07 11:47:09;;;;;;;;;;;;;;;4.08;79.68;99718.09;5057254;28;19921;-72
2023/12/07 11:49:38;;;;;;;;;;;;;;;4.04;79.59;99723.88;5056826;28;19920;-72
2023/12/07 11:52:14;;;;;;;;;;;;;;;4.03;79.19;99717.97;5057063;28;19924;-71
2023/12/07 11:54:46;;;;;;;;;;;;;;;4.01;78.96;99717.09;5056018;28;19924;-73
2023/12/07 11:57:16;;;;;;;;;;;;;;;3.94;78.81;99721.94;5056919;28;20309;-73
2023/12/07 11:59:47;;;;;;;;;;;;;;;3.96;78.79;99726.22;5057038;28;19974;-73
2023/12/07 12:02:17;;;;;;;;;;;;;;;4.00;78.76;99717.94;5054739;28;19921;-74
2023/12/07 12:04:46;;;;;;;;;;;;;;;4.02;78.73;99723.88;5039079;28;20283;-75
2023/12/07 12:07:15;;;;;;;;;;;;;;;3.97;78.12;99722.88;5038726;28;20264;-74
2023/12/07 12:09:43;;;;;;;;;;;;;;;3.97;78.53;99722.03;5055487;28;20016;-75
2023/12/07 12:12:15;;;;;;;;;;;;;;;3.95;78.27;99727.03;5055240;28;19920;-74
2023/12/07 12:14:46;;;;;;;;;;;;;;;3.91;78.54;99722.72;5056855;28;19920;-74
2023/12/07 12:17:16;;;;;;;;;;;;;;;3.89;78.51;99723.47;5056390;28;19921;-74
2023/12/07 12:19:45;;;;;;;;;;;;;;;3.88;78.54;99721.78;5056608;28;19921;-74
2023/12/07 12:22:13;;;;;;;;;;;;;;;3.89;78.36;99726.88;5054451;28;20290;-75
2023/12/07 12:24:42;;;;;;;;;;;;;;;3.87;78.16;99725.97;5056230;28;20011;-75
2023/12/07 12:27:11;;;;;;;;;;;;;;;3.82;78.08;99727.53;5056366;28;19927;-76
2023/12/07 12:29:40;;;;;;;;;;;;;;;3.84;78.32;99725.06;5056476;28;19951;-76
2023/12/07 12:32:10;;;;;;;;;;;;;;;3.82;78.14;99722.47;5056675;28;19927;-77
2023/12/07 12:34:39;;;;;;;;;;;;;;;3.80;78.37;99729.16;5059064;28;19924;-76
2023/12/07 12:37:09;;;;;;;;;;;;;;;3.81;78.15;99730.03;5055161;28;19971;-77
2023/12/07 12:39:38;;;;;;;;;;;;;;;3.85;78.11;99724.22;5056221;28;19920;-77
2023/12/07 12:42:07;;;;;;;;;;;;;;;3.81;78.10;99725.84;5054442;28;20015;-76
2023/12/07 12:44:35;;;;;;;;;;;;;;;3.80;78.44;99724.09;5056235;28;20030;-77
2023/12/07 12:47:08;;;;;;;;;;;;;;;3.81;77.97;99724.97;5054811;28;19988;-78
2023/12/07 12:49:42;;;;;;;;;;;;;;;3.82;78.25;99727.53;5055991;28;20286;-81
2023/12/07 12:52:11;;;;;;;;;;;;;;;3.80;78.09;99733.34;5054942;28;19927;-83
2023/12/07 12:54:43;;;;;;;;;;;;;;;3.80;78.23;99733.34;5054859;28;19974;-79
2023/12/07 12:57:13;;;;;;;;;;;;;;;3.69;78.10;99735.59;5056059;28;19920;-78
2023/12/07 12:59:42;;;;;;;;;;;;;;;3.70;78.15;99737.28;5056004;28;19928;-78
2023/12/07 13:02:11;;;;;;;;;;;;;;;3.67;78.16;99737.19;5038027;28;20290;-79
2023/12/07 13:04:41;;;;;;;;;;;;;;;3.65;78.13;99733.78;5056096;28;20377;-79
2023/12/07 13:07:10;;;;;;;;;;;;;;;3.64;77.93;99737.13;5054944;28;19920;-78
2023/12/07 13:09:39;;;;;;;;;;;;;;;3.64;77.96;99741.31;5037788;28;20022;-77